Time;durP1;ratioP1;P1;durP2;ratioP2;P2;SDS_P1;SDS_P2;PMS_P1;PMS_P2;Temp;Humidity;BMP_temperature;BMP_pressure;BME280_temperature;BME280_humidity;BME280_pressure;Samples;Min_cycle;Max_cycle;Signal;HPM_P1;HPM_P2
2021/12/15 00:01:22;;;;;;;20.55;7.57;;;;;;;1.67;100.00;101744.81;5021954;28;20334;-81
2021/12/15 00:03:47;;;;;;;23.58;8.07;;;;;;;1.66;100.00;101754.53;5021058;28;20727;-82
2021/12/15 00:06:18;;;;;;;21.33;8.38;;;;;;;1.66;100.00;101769.59;5028006;28;20033;-82
2021/12/15 00:08:46;;;;;;;24.13;8.85;;;;;;;1.52;100.00;101759.84;4993924;28;20501;-82
2021/12/15 00:11:12;;;;;;;7.57;2.58;;;;;;;1.56;100.00;101768.44;5008543;28;20124;-82
2021/12/15 00:13:39;;;;;;;21.30;7.43;;;;;;;1.58;100.00;101761.25;4991749;28;20045;-82
2021/12/15 00:16:07;;;;;;;14.80;6.30;;;;;;;1.72;100.00;101771.88;5056277;28;20112;-83
2021/12/15 00:18:33;;;;;;;7.22;3.67;;;;;;;1.76;100.00;101765.44;5022001;28;20033;-83
2021/12/15 00:20:59;;;;;;;14.40;5.00;;;;;;;1.75;100.00;101754.00;5010700;28;20156;-82
2021/12/15 00:23:25;;;;;;;9.70;4.78;;;;;;;1.59;100.00;101728.50;5002936;28;20041;-82
2021/12/15 00:25:51;;;;;;;6.03;3.35;;;;;;;1.83;100.00;101771.22;5013415;28;20083;-82
2021/12/15 00:28:17;;;;;;;12.82;6.30;;;;;;;1.83;100.00;101781.84;4992912;28;20123;-83
2021/12/15 00:30:43;;;;;;;11.55;4.68;;;;;;;1.71;100.00;101773.66;5028470;28;20083;-82
2021/12/15 00:33:08;;;;;;;10.98;4.57;;;;;;;1.67;100.00;101766.88;4991258;28;20126;-82
2021/12/15 00:35:36;;;;;;;11.05;5.05;;;;;;;1.73;100.00;101779.72;5019723;28;20613;-83
2021/12/15 00:38:03;;;;;;;8.95;4.72;;;;;;;1.70;100.00;101782.56;5016931;28;20479;-82
2021/12/15 00:40:29;;;;;;;11.75;4.75;;;;;;;1.71;100.00;101767.50;5006332;28;20041;-83
2021/12/15 00:42:56;;;;;;;14.68;6.38;;;;;;;1.64;100.00;101759.09;5056642;28;20468;-82
2021/12/15 00:45:23;;;;;;;13.02;6.35;;;;;;;1.65;100.00;101763.44;5007659;28;20044;-83
2021/12/15 00:47:49;;;;;;;20.38;7.75;;;;;;;1.56;100.00;101763.13;5026622;28;20057;-82
2021/12/15 00:50:17;;;;;;;14.25;6.53;;;;;;;1.53;100.00;101765.06;5007778;28;20041;-83
2021/12/15 00:52:43;;;;;;;25.27;7.20;;;;;;;1.53;100.00;101764.19;5020333;28;20030;-83
2021/12/15 00:55:13;;;;;;;16.67;6.25;;;;;;;1.76;100.00;101760.97;5013279;28;20471;-82
2021/12/15 00:57:39;;;;;;;13.82;5.45;;;;;;;1.85;100.00;101748.09;5010400;28;20470;-83
2021/12/15 01:00:08;;;;;;;13.50;5.05;;;;;;;1.84;100.00;101752.56;5007308;28;20034;-82
2021/12/15 01:02:34;;;;;;;15.77;6.47;;;;;;;1.78;100.00;101763.56;4995329;28;20041;-82
2021/12/15 01:05:00;;;;;;;10.70;5.07;;;;;;;1.48;100.00;101737.97;5018834;28;20026;-82
2021/12/15 01:07:26;;;;;;;12.10;5.85;;;;;;;1.50;100.00;101765.22;5012093;28;20029;-82
2021/12/15 01:09:56;;;;;;;12.32;5.90;;;;;;;1.47;100.00;101756.59;5027902;28;20041;-82
2021/12/15 01:12:47;;;;;;;14.38;5.07;;;;;;;1.44;100.00;101756.78;5028612;28;20033;-83
2021/12/15 01:20:35;;;;;;;9.27;4.28;;;;;;;1.18;100.00;101753.03;5003412;28;20033;-83
2021/12/15 01:23:05;;;;;;;5.13;1.95;;;;;;;1.17;100.00;101751.34;5023865;28;20034;-82
2021/12/15 01:25:38;;;;;;;8.45;4.28;;;;;;;1.67;100.00;101758.06;5009067;28;20044;-82
2021/12/15 01:28:04;;;;;;;11.27;4.07;;;;;;;1.60;100.00;101752.25;5025936;28;20037;-83
2021/12/15 01:30:34;;;;;;;14.20;4.32;;;;;;;1.46;100.00;101763.72;5025437;28;20152;-83
2021/12/15 01:33:01;;;;;;;8.27;3.30;;;;;;;1.40;100.00;101763.22;5018048;28;20034;-82
2021/12/15 01:35:27;;;;;;;7.25;3.05;;;;;;;1.28;100.00;101743.63;5014135;28;20033;-82
2021/12/15 01:37:53;;;;;;;6.55;3.00;;;;;;;1.41;100.00;101755.19;5000865;28;20056;-83
2021/12/15 01:40:32;;;;;;;8.82;3.42;;;;;;;1.40;100.00;101752.63;5022721;28;20041;-82
2021/12/15 01:42:57;;;;;;;8.23;3.22;;;;;;;1.37;100.00;101748.34;5008659;28;20394;-82
2021/12/15 01:48:10;;;;;;;4.72;1.95;;;;;;;1.68;100.00;101734.09;5012473;28;20041;-82
2021/12/15 01:50:36;;;;;;;6.28;2.60;;;;;;;1.94;100.00;101750.19;5005896;28;20075;-82
2021/12/15 01:53:03;;;;;;;5.57;1.50;;;;;;;2.34;100.00;101742.38;5011488;28;20037;-82
2021/12/15 01:55:29;;;;;;;5.97;2.35;;;;;;;2.85;100.00;101750.53;5019971;28;20398;-82
2021/12/15 01:57:55;;;;;;;7.88;2.15;;;;;;;3.06;100.00;101734.97;5013959;28;20448;-82
2021/12/15 02:00:29;;;;;;;7.38;2.58;;;;;;;3.27;100.00;101737.97;5007479;28;20471;-82
2021/12/15 02:02:57;;;;;;;5.05;2.20;;;;;;;3.53;100.00;101749.50;4993779;28;20040;-82
2021/12/15 02:05:25;;;;;;;5.10;1.80;;;;;;;3.49;100.00;101716.97;5008017;28;20076;-83
2021/12/15 02:07:52;;;;;;;9.95;2.88;;;;;;;3.84;100.00;101750.88;5024975;28;20059;-82
2021/12/15 02:10:20;;;;;;;6.93;1.80;;;;;;;3.87;100.00;101750.66;4992064;28;20114;-82
2021/12/15 02:12:46;;;;;;;9.48;2.45;;;;;;;3.83;100.00;101759.78;5005740;28;20041;-82
2021/12/15 02:15:18;;;;;;;12.40;2.50;;;;;;;3.66;100.00;101771.63;4990816;28;20036;-82
2021/12/15 02:17:44;;;;;;;9.18;2.42;;;;;;;3.59;100.00;101769.50;5009172;28;20040;-83
2021/12/15 02:20:14;;;;;;;5.35;1.70;;;;;;;3.53;100.00;101784.91;5006816;28;20041;-83
2021/12/15 02:22:40;;;;;;;8.50;2.25;;;;;;;3.12;100.00;101776.22;5023856;28;20041;-83
2021/12/15 02:25:10;;;;;;;6.88;1.90;;;;;;;2.91;100.00;101783.81;5006204;28;20490;-82
2021/12/15 02:27:36;;;;;;;5.50;1.70;;;;;;;2.54;100.00;101784.41;5049374;28;20035;-82
2021/12/15 02:30:21;;;;;;;4.30;1.55;;;;;;;2.19;100.00;101768.06;5010867;28;20048;-82
2021/12/15 02:33:01;;;;;;;4.85;1.40;;;;;;;2.05;100.00;101782.19;4988295;28;20122;-83
2021/12/15 02:38:12;;;;;;;3.85;1.70;;;;;;;1.81;100.00;101789.88;5010129;28;20072;-83
2021/12/15 02:40:39;;;;;;;2.25;1.10;;;;;;;1.69;100.00;101786.19;5018316;28;20034;-82
2021/12/15 02:43:05;;;;;;;2.67;1.33;;;;;;;1.66;100.00;101785.50;5006885;28;20083;-82
2021/12/15 02:45:31;;;;;;;16.30;2.28;;;;;;;1.64;100.00;101792.69;5008024;28;20037;-82
2021/12/15 02:47:57;;;;;;;7.05;1.88;;;;;;;1.58;100.00;101793.06;5021167;28;20498;-82
2021/12/15 02:50:27;;;;;;;5.82;1.42;;;;;;;1.56;100.00;101801.09;5021290;28;20475;-82
2021/12/15 02:52:53;;;;;;;33.80;2.15;;;;;;;1.62;100.00;101799.91;5022731;28;20450;-82
2021/12/15 02:55:28;;;;;;;4.97;1.42;;;;;;;1.60;100.00;101793.84;5018790;28;20490;-83
2021/12/15 02:57:54;;;;;;;4.57;1.70;;;;;;;1.33;100.00;101730.09;5000002;28;20041;-82
2021/12/15 03:00:27;;;;;;;4.45;1.80;;;;;;;1.81;100.00;101783.72;5006768;28;20457;-82
2021/12/15 03:03:45;;;;;;;4.85;2.33;;;;;;;2.19;100.00;101789.28;5024813;28;20171;-82
2021/12/15 03:06:02;;;;;;;2.85;1.63;;;;;;;2.60;100.00;101794.63;5020484;28;20042;-83
2021/12/15 03:08:49;;;;;;;3.22;1.83;;;;;;;2.66;100.00;101796.03;5006344;28;20037;-83
2021/12/15 03:16:43;;;;;;;3.38;1.20;;;;;;;3.52;100.00;101790.34;5008723;28;20083;-83
2021/12/15 03:19:09;;;;;;;1.35;1.10;;;;;;;3.85;100.00;101799.63;5007337;28;20061;-81
2021/12/15 03:21:35;;;;;;;6.95;1.65;;;;;;;4.10;100.00;101788.09;5021734;28;20022;-82
2021/12/15 03:24:13;;;;;;;5.38;2.70;;;;;;;4.37;100.00;101799.44;5005577;28;20033;-81
2021/12/15 03:26:48;;;;;;;4.80;1.27;;;;;;;4.57;100.00;101798.00;5002524;28;20044;-82
2021/12/15 03:35:01;;;;;;;1.83;1.23;;;;;;;4.65;100.00;101797.44;5011624;28;20042;-82
2021/12/15 03:37:29;;;;;;;3.72;1.48;;;;;;;4.83;100.00;101788.09;5008266;28;20044;-82
2021/12/15 03:40:09;;;;;;;8.25;1.70;;;;;;;4.90;100.00;101798.31;5023530;28;20053;-82
2021/12/15 03:42:45;;;;;;;9.63;1.45;;;;;;;4.94;100.00;101789.13;4989403;28;20112;-82
2021/12/15 03:45:14;;;;;;;5.18;1.60;;;;;;;4.72;100.00;101758.72;5032280;28;20103;-82
2021/12/15 03:47:45;;;;;;;6.70;1.50;;;;;;;4.97;100.00;101781.72;5005980;28;20048;-83
2021/12/15 03:50:13;;;;;;;5.00;1.50;;;;;;;4.94;100.00;101763.31;4991444;28;20037;-82
2021/12/15 03:52:39;;;;;;;2.40;1.42;;;;;;;5.12;100.00;101786.91;5004481;28;20037;-82
2021/12/15 03:55:06;;;;;;;2.63;1.23;;;;;;;5.17;100.00;101784.75;5020555;28;20089;-83
2021/12/15 03:57:32;;;;;;;11.00;1.77;;;;;;;5.15;100.00;101784.00;4988298;28;20042;-82
2021/12/15 03:59:58;;;;;;;12.63;1.83;;;;;;;5.09;100.00;101781.81;4986031;28;20443;-83
2021/12/15 04:02:25;;;;;;;3.70;1.38;;;;;;;5.08;100.00;101780.97;5025212;28;20033;-82
2021/12/15 04:04:51;;;;;;;6.78;1.30;;;;;;;5.10;100.00;101780.81;5007814;28;20116;-83
2021/12/15 04:07:18;;;;;;;7.82;1.50;;;;;;;5.01;100.00;101787.72;5032144;28;20105;-82
2021/12/15 04:09:45;;;;;;;7.35;1.50;;;;;;;4.98;100.00;101785.28;5037694;28;20041;-82
2021/12/15 04:12:11;;;;;;;8.90;1.40;;;;;;;4.98;100.00;101787.94;5001923;28;20034;-82
2021/12/15 04:14:55;;;;;;;7.10;1.27;;;;;;;4.95;100.00;101783.69;5004814;28;20037;-82
2021/12/15 04:17:26;;;;;;;7.20;2.05;;;;;;;4.84;100.00;101784.47;4995775;28;20486;-82
2021/12/15 04:19:54;;;;;;;22.48;4.30;;;;;;;4.58;100.00;101786.38;5013256;28;20084;-83
2021/12/15 04:22:20;;;;;;;8.30;3.63;;;;;;;4.34;100.00;101786.34;5011160;28;20033;-81
2021/12/15 04:24:46;;;;;;;10.00;2.83;;;;;;;4.15;100.00;101785.94;5009557;28;20686;-82
2021/12/15 04:27:12;;;;;;;9.93;2.47;;;;;;;3.97;100.00;101777.47;5019207;28;20060;-82
2021/12/15 04:29:39;;;;;;;9.02;2.25;;;;;;;3.96;100.00;101787.25;4990620;28;20487;-82
2021/12/15 04:32:11;;;;;;;4.53;2.10;;;;;;;3.80;100.00;101797.25;5024855;28;20360;-82
2021/12/15 04:34:36;;;;;;;2.67;1.20;;;;;;;3.67;100.00;101793.75;5025098;28;20033;-82
2021/12/15 04:37:02;;;;;;;8.15;1.80;;;;;;;3.51;100.00;101784.16;5008654;28;20049;-82
2021/12/15 04:39:28;;;;;;;2.65;1.50;;;;;;;3.57;100.00;101795.31;5029629;28;20034;-82
2021/12/15 04:41:55;;;;;;;8.25;2.45;;;;;;;3.51;100.00;101789.47;5023552;28;20040;-82
2021/12/15 04:44:24;;;;;;;5.68;1.20;;;;;;;3.66;100.00;101795.56;5038264;28;20140;-82
2021/12/15 04:47:00;;;;;;;4.05;1.23;;;;;;;3.79;100.00;101802.72;5025924;28;20053;-82
2021/12/15 04:49:29;;;;;;;2.55;1.00;;;;;;;3.89;100.00;101799.28;4995564;28;20025;-82
2021/12/15 04:51:56;;;;;;;8.00;1.67;;;;;;;3.99;100.00;101806.63;5011734;28;20045;-82
2021/12/15 04:54:22;;;;;;;2.22;1.23;;;;;;;3.93;100.00;101795.44;5010251;28;20758;-81
2021/12/15 04:56:47;;;;;;;2.97;1.70;;;;;;;3.98;100.00;101792.47;5007906;28;20426;-82
2021/12/15 04:59:13;;;;;;;6.32;1.73;;;;;;;4.07;100.00;101793.63;5004987;28;20037;-82
2021/12/15 05:01:39;;;;;;;2.83;1.30;;;;;;;4.23;100.00;101812.88;5026647;28;20091;-82
2021/12/15 05:04:05;;;;;;;6.95;1.83;;;;;;;4.33;100.00;101818.41;5021733;28;20038;-82
2021/12/15 05:06:31;;;;;;;5.00;1.70;;;;;;;4.41;100.00;101819.56;5006715;28;20025;-82
2021/12/15 05:08:56;;;;;;;6.85;1.40;;;;;;;4.47;100.00;101822.72;5022699;28;20029;-82
2021/12/15 05:11:22;;;;;;;4.85;1.27;;;;;;;4.59;100.00;101820.03;5026248;28;20041;-82
2021/12/15 05:13:48;;;;;;;4.50;1.42;;;;;;;4.47;100.00;101794.28;4992644;28;20060;-82
2021/12/15 05:16:16;;;;;;;4.43;1.27;;;;;;;4.54;100.00;101781.38;4993935;28;20069;-82
2021/12/15 05:18:51;;;;;;;1.60;1.10;;;;;;;4.77;100.00;101815.19;4985279;28;20084;-82
2021/12/15 05:21:22;;;;;;;2.03;1.10;;;;;;;4.84;100.00;101819.13;5008556;28;20034;-82
2021/12/15 05:23:54;;;;;;;3.45;1.48;;;;;;;4.77;100.00;101809.88;5022322;28;20037;-82
2021/12/15 05:26:20;;;;;;;3.50;1.30;;;;;;;4.89;100.00;101820.59;5010468;28;20065;-82
2021/12/15 05:28:45;;;;;;;2.83;1.60;;;;;;;5.03;100.00;101826.59;5007653;28;20025;-83
2021/12/15 05:31:11;;;;;;;6.25;1.95;;;;;;;4.89;100.00;101810.78;4991254;28;20386;-82
2021/12/15 05:33:36;;;;;;;3.35;1.27;;;;;;;4.92;100.00;101823.03;5022907;28;20037;-82
2021/12/15 05:36:03;;;;;;;3.33;1.33;;;;;;;4.95;100.00;101834.31;4992391;28;20210;-82
2021/12/15 05:38:28;;;;;;;4.28;1.60;;;;;;;4.94;100.00;101837.09;5011155;28;20470;-82
2021/12/15 05:40:56;;;;;;;4.28;1.58;;;;;;;4.88;100.00;101826.88;5010077;28;20040;-82
2021/12/15 05:43:23;;;;;;;8.55;1.60;;;;;;;4.93;100.00;101836.25;5025265;28;20114;-82
2021/12/15 05:45:50;;;;;;;9.68;2.38;;;;;;;4.98;100.00;101834.09;5025661;28;20032;-82
2021/12/15 05:48:17;;;;;;;15.05;4.05;;;;;;;4.91;100.00;101842.66;5025243;28;20025;-82
2021/12/15 05:50:44;;;;;;;5.63;2.50;;;;;;;4.76;100.00;101839.28;5023756;28;20494;-82
2021/12/15 05:53:11;;;;;;;12.75;3.05;;;;;;;4.68;100.00;101839.84;5018478;28;20041;-82
2021/12/15 05:55:37;;;;;;;10.02;3.00;;;;;;;4.63;100.00;101845.50;5016929;28;20025;-82
2021/12/15 05:58:04;;;;;;;8.30;2.20;;;;;;;4.68;100.00;101837.16;5007600;28;20042;-82
2021/12/15 06:00:33;;;;;;;7.78;2.05;;;;;;;5.01;100.00;101825.88;4992048;28;20045;-82
2021/12/15 06:03:00;;;;;;;5.47;1.50;;;;;;;5.44;100.00;101841.31;5018856;28;20049;-82
2021/12/15 06:05:26;;;;;;;8.30;1.40;;;;;;;5.67;100.00;101847.59;5027091;28;20037;-81
2021/12/15 06:07:52;;;;;;;17.08;1.75;;;;;;;5.67;100.00;101842.25;5004935;28;20104;-82
2021/12/15 06:10:22;;;;;;;12.77;1.45;;;;;;;5.77;100.00;101849.53;4990520;28;20095;-82
2021/12/15 06:12:49;;;;;;;6.78;1.30;;;;;;;5.81;100.00;101845.66;5008468;28;20052;-82
2021/12/15 06:15:21;;;;;;;4.10;1.40;;;;;;;5.85;100.00;101848.00;4993526;28;20474;-82
2021/12/15 06:17:51;;;;;;;10.23;1.23;;;;;;;5.83;100.00;101849.06;5010181;28;20475;-82
2021/12/15 06:20:17;;;;;;;11.63;1.88;;;;;;;5.73;100.00;101831.09;5020639;28;20042;-82
2021/12/15 06:22:45;;;;;;;8.95;1.23;;;;;;;5.71;100.00;101851.69;5011725;28;20165;-82
2021/12/15 06:25:11;;;;;;;6.63;1.45;;;;;;;5.49;100.00;101839.16;5008692;28;20064;-82
2021/12/15 06:27:37;;;;;;;5.70;1.30;;;;;;;5.59;100.00;101857.16;5040671;28;20112;-82
2021/12/15 06:30:04;;;;;;;5.20;1.35;;;;;;;5.44;100.00;101857.31;5007148;28;20120;-82
2021/12/15 06:32:30;;;;;;;10.40;1.70;;;;;;;5.33;100.00;101853.78;4991832;28;20038;-82
2021/12/15 06:34:55;;;;;;;4.07;1.60;;;;;;;5.41;100.00;101856.72;5022972;28;20040;-82
2021/12/15 06:37:21;;;;;;;10.93;2.38;;;;;;;5.49;100.00;101864.97;5025199;28;20037;-82
2021/12/15 06:39:47;;;;;;;10.63;2.00;;;;;;;5.39;100.00;101858.63;5022625;28;20116;-82
2021/12/15 06:42:13;;;;;;;10.48;2.22;;;;;;;5.24;100.00;101871.31;5017075;28;20071;-82
2021/12/15 06:44:40;;;;;;;10.77;2.30;;;;;;;5.05;100.00;101869.13;5002504;28;20111;-82
2021/12/15 07:00:30;;;;;;;9.98;2.58;;;;;;;4.03;100.00;101887.97;5025133;28;20033;-82
2021/12/15 07:02:57;;;;;;;5.22;1.98;;;;;;;3.93;100.00;101893.06;4992885;28;20041;-82
2021/12/15 07:05:24;;;;;;;5.07;1.60;;;;;;;3.81;100.00;101889.44;5007781;28;20148;-82
2021/12/15 07:07:51;;;;;;;8.23;2.03;;;;;;;3.73;100.00;101895.28;5018762;28;20061;-82
2021/12/15 07:10:23;;;;;;;6.93;1.63;;;;;;;3.74;100.00;101899.63;5026440;28;20402;-82
2021/12/15 07:12:49;;;;;;;4.93;1.45;;;;;;;3.74;100.00;101893.47;5010196;28;20056;-82
2021/12/15 07:15:16;;;;;;;8.95;1.63;;;;;;;3.84;100.00;101896.34;5012399;28;20021;-82
2021/12/15 07:17:44;;;;;;;2.65;1.17;;;;;;;4.02;100.00;101894.22;4991836;28;20048;-82
2021/12/15 07:22:56;;;;;;;7.78;1.40;;;;;;;4.24;100.00;101905.13;5011769;28;20033;-82
2021/12/15 07:25:22;;;;;;;3.05;1.17;;;;;;;4.30;100.00;101912.66;5010622;28;20045;-82
2021/12/15 07:27:49;;;;;;;9.07;1.40;;;;;;;4.37;100.00;101916.59;5010372;28;20033;-82
2021/12/15 07:30:15;;;;;;;4.32;1.50;;;;;;;4.39;100.00;101914.69;5040548;28;20025;-82
2021/12/15 07:32:41;;;;;;;7.50;1.73;;;;;;;4.31;100.00;101911.72;5008848;28;20045;-82
2021/12/15 07:35:08;;;;;;;7.13;1.80;;;;;;;4.26;100.00;101905.00;4992955;28;20136;-82
2021/12/15 07:37:34;;;;;;;6.70;1.80;;;;;;;4.28;100.00;101919.91;5026524;28;20040;-82
2021/12/15 07:40:01;;;;;;;2.70;1.25;;;;;;;4.21;100.00;101923.09;5025910;28;20029;-83
2021/12/15 07:43:23;;;;;;;6.15;1.90;;;;;;;3.82;100.00;101877.81;5024347;28;20045;-82
2021/12/15 07:45:23;;;;;;;6.15;1.45;;;;;;;3.92;100.00;101907.34;5016844;28;20060;-82
2021/12/15 07:47:54;;;;;;;3.67;1.33;;;;;;;3.90;100.00;101922.53;4989877;28;20041;-83
2021/12/15 07:50:21;;;;;;;5.53;1.67;;;;;;;3.85;100.00;101914.00;5005402;28;20041;-82
2021/12/15 07:52:48;;;;;;;6.72;1.88;;;;;;;3.89;100.00;101926.13;4995324;28;20486;-82
2021/12/15 07:55:14;;;;;;;5.05;1.70;;;;;;;3.88;100.00;101924.44;5011307;28;20462;-82
2021/12/15 07:57:40;;;;;;;2.80;1.20;;;;;;;3.94;100.00;101937.31;5016635;28;20045;-82
2021/12/15 08:00:08;;;;;;;7.82;2.63;;;;;;;3.91;100.00;101922.41;4999535;28;20026;-82
2021/12/15 08:02:33;;;;;;;16.15;4.68;;;;;;;3.94;100.00;101930.22;4992524;28;20157;-82
2021/12/15 08:04:59;;;;;;;3.75;1.95;;;;;;;3.95;100.00;101929.25;5024849;28;20886;-82
2021/12/15 08:07:25;;;;;;;4.82;1.73;;;;;;;3.90;100.00;101911.91;5022817;28;20071;-82
2021/12/15 08:09:50;;;;;;;5.68;1.95;;;;;;;4.01;100.00;101920.00;4993563;28;20044;-82
2021/12/15 08:12:16;;;;;;;6.10;1.92;;;;;;;4.08;100.00;101923.09;4996849;28;20065;-82
2021/12/15 08:14:42;;;;;;;5.15;1.92;;;;;;;4.06;100.00;101914.38;4997250;28;20081;-83
2021/12/15 08:17:08;;;;;;;13.13;2.95;;;;;;;4.18;100.00;101922.38;5025511;28;20069;-82
2021/12/15 08:19:34;;;;;;;11.98;4.28;;;;;;;4.31;100.00;101937.47;4992813;28;20041;-82
2021/12/15 08:21:59;;;;;;;9.57;3.40;;;;;;;4.31;100.00;101946.34;5017103;28;20044;-82
2021/12/15 08:24:25;;;;;;;10.20;2.55;;;;;;;4.18;100.00;101940.13;4993506;28;20068;-82
2021/12/15 08:26:51;;;;;;;8.15;2.55;;;;;;;4.01;100.00;101937.78;5013082;28;20052;-82
2021/12/15 08:29:16;;;;;;;7.32;2.15;;;;;;;3.80;100.00;101951.56;5007085;28;20029;-82
2021/12/15 08:31:42;;;;;;;6.38;2.08;;;;;;;3.60;100.00;101957.34;5023602;28;20132;-82
2021/12/15 08:34:08;;;;;;;7.13;2.55;;;;;;;3.52;100.00;101966.69;5027000;28;20037;-82
2021/12/15 08:36:35;;;;;;;7.68;2.20;;;;;;;3.48;100.00;101956.34;5022452;28;20033;-82
2021/12/15 08:39:02;;;;;;;8.30;2.10;;;;;;;3.44;100.00;101966.34;4993460;28;20040;-82
2021/12/15 08:41:29;;;;;;;3.85;2.13;;;;;;;3.43;100.00;101972.59;5010545;28;20095;-83
2021/12/15 08:43:56;;;;;;;9.10;2.08;;;;;;;3.40;100.00;101971.97;5024076;28;20064;-82
2021/12/15 08:46:31;;;;;;;8.00;2.17;;;;;;;3.19;100.00;101939.66;5000492;28;20033;-82
2021/12/15 08:48:57;;;;;;;8.63;2.20;;;;;;;3.38;100.00;101971.19;5025845;28;20121;-82
2021/12/15 08:51:26;;;;;;;6.22;2.90;;;;;;;3.45;100.00;101983.16;5028557;28;20441;-82
2021/12/15 08:53:54;;;;;;;7.30;2.80;;;;;;;3.31;100.00;101949.50;5026808;28;20490;-82
2021/12/15 08:56:20;;;;;;;10.38;2.60;;;;;;;3.64;100.00;101975.66;5023856;28;20048;-82
2021/12/15 08:58:45;;;;;;;7.90;2.65;;;;;;;3.80;100.00;101991.47;5027740;28;20470;-82
2021/12/15 09:01:12;;;;;;;4.88;2.72;;;;;;;3.90;100.00;101981.94;5011705;28;20033;-82
2021/12/15 09:03:40;;;;;;;11.38;3.65;;;;;;;4.06;100.00;101991.56;4991268;28;20133;-82
2021/12/15 09:06:06;;;;;;;9.23;3.17;;;;;;;4.26;100.00;101995.50;5010426;28;20071;-83
2021/12/15 09:08:32;;;;;;;10.65;3.10;;;;;;;4.46;100.00;102007.47;5026883;28;20052;-82
2021/12/15 09:11:02;;;;;;;8.80;3.78;;;;;;;4.68;100.00;102002.34;4995129;28;20061;-83
2021/12/15 09:13:32;;;;;;;11.27;4.85;;;;;;;4.82;100.00;101991.59;4992998;28;20048;-82
2021/12/15 09:16:00;;;;;;;12.95;3.53;;;;;;;4.96;100.00;102003.94;4995523;28;20100;-82
2021/12/15 09:18:26;;;;;;;8.40;3.08;;;;;;;4.92;100.00;101972.28;5039522;28;20029;-82
2021/12/15 09:20:52;;;;;;;8.38;3.67;;;;;;;5.18;100.00;102008.56;5010742;28;20044;-82
2021/12/15 09:23:18;;;;;;;11.52;3.17;;;;;;;5.21;100.00;102011.06;4996068;28;20045;-83
2021/12/15 09:25:46;;;;;;;6.95;3.05;;;;;;;5.19;100.00;102017.47;5014326;28;20029;-82
2021/12/15 09:28:12;;;;;;;9.23;2.47;;;;;;;5.16;100.00;101997.19;5010689;28;20455;-82
2021/12/15 09:30:44;;;;;;;10.52;2.05;;;;;;;5.38;100.00;102014.31;5020834;28;20494;-82
2021/12/15 09:33:12;;;;;;;6.55;2.15;;;;;;;5.51;100.00;102001.78;5015631;28;20049;-83
2021/12/15 09:35:38;;;;;;;32.63;4.18;;;;;;;5.50;100.00;101981.38;4996109;28;20091;-81
2021/12/15 09:38:04;;;;;;;19.73;3.35;;;;;;;5.72;100.00;102008.19;4995252;28;20096;-82
2021/12/15 09:40:29;;;;;;;10.93;2.35;;;;;;;6.27;100.00;102027.28;4999274;28;20418;-81
2021/12/15 09:42:56;;;;;;;5.65;2.45;;;;;;;6.55;100.00;102023.31;5034965;28;20438;-82
2021/12/15 10:17:22;;;;;;;9.45;4.88;;;;;;;13.25;87.92;102072.63;5029199;28;20025;-82
2021/12/15 10:18:16;;;;;;;7.70;3.17;;;;;;;15.93;78.96;102088.16;5012730;28;20049;-83
2021/12/15 10:20:41;;;;;;;6.88;3.47;;;;;;;16.71;76.31;102101.47;5026112;28;20038;-83
2021/12/15 10:23:12;;;;;;;3.58;1.80;;;;;;;17.08;74.51;102105.22;4997561;28;20435;-83
2021/12/15 10:25:57;;;;;;;11.65;2.08;;;;;;;17.11;73.85;102114.88;4996162;28;20700;-83
2021/12/15 10:28:30;;;;;;;7.45;2.20;;;;;;;17.17;73.19;102105.13;5012090;28;20495;-83
2021/12/15 10:31:03;;;;;;;3.72;1.70;;;;;;;17.08;73.69;102126.97;5014005;28;20033;-83
2021/12/15 10:33:28;;;;;;;4.18;1.90;;;;;;;17.11;73.70;102139.34;5013542;28;20049;-84
2021/12/15 10:36:04;;;;;;;5.80;1.42;;;;;;;16.86;72.83;102119.72;5031111;28;20036;-83
2021/12/15 10:38:39;;;;;;;4.85;1.15;;;;;;;16.68;74.17;102114.59;5027660;28;20041;-83
2021/12/15 10:41:10;;;;;;;5.78;2.20;;;;;;;16.73;75.30;102130.34;5030408;28;20034;-83
2021/12/15 10:43:37;;;;;;;3.28;1.33;;;;;;;16.54;74.15;102112.66;5013692;28;20034;-83
2021/12/15 10:46:09;;;;;;;2.38;0.95;;;;;;;15.93;75.82;102109.84;5031610;28;20058;-83
2021/12/15 10:48:43;;;;;;;6.93;1.80;;;;;;;15.79;77.89;102108.75;4996723;28;20570;-83
2021/12/15 10:51:35;;;;;;;3.00;1.40;;;;;;;15.46;78.16;102121.59;4996457;28;20033;-83
2021/12/15 10:54:24;;;;;;;3.20;1.10;;;;;;;14.30;81.95;102122.69;5029630;28;20116;-83
2021/12/15 10:56:52;;;;;;;4.15;1.10;;;;;;;13.38;85.72;102119.84;5023843;28;20526;-83
2021/12/15 10:59:17;;;;;;;4.75;1.10;;;;;;;13.27;86.95;102128.22;5013532;28;20256;-83
2021/12/15 11:01:53;;;;;;;4.90;1.35;;;;;;;13.61;86.30;102120.13;5026326;28;20045;-84
2021/12/15 11:04:45;;;;;;;4.85;1.58;;;;;;;14.15;83.21;102127.03;5012135;28;20102;-84
2021/12/15 11:07:10;;;;;;;3.55;1.95;;;;;;;15.05;79.93;102130.63;5027039;28;20029;-83
2021/12/15 11:09:50;;;;;;;4.10;1.27;;;;;;;15.58;77.02;102118.28;5027155;28;20494;-84
2021/12/15 11:12:40;;;;;;;2.22;1.20;;;;;;;15.52;75.87;102121.72;4993050;28;20041;-85
2021/12/15 11:15:22;;;;;;;2.28;0.90;;;;;;;13.95;80.50;102124.63;5025694;28;20501;-78
2021/12/15 11:17:53;;;;;;;6.20;1.20;;;;;;;14.79;78.00;102127.28;5024868;28;20034;-78
2021/12/15 11:20:34;;;;;;;2.60;1.20;;;;;;;14.68;77.90;102125.75;5008359;28;20050;-79
2021/12/15 11:23:11;;;;;;;2.28;1.20;;;;;;;14.25;79.86;102122.34;4991702;28;20039;-79
2021/12/15 11:26:07;;;;;;;2.10;0.98;;;;;;;13.13;82.52;102131.50;5001977;28;20065;-78
2021/12/15 11:28:40;;;;;;;2.67;1.33;;;;;;;13.23;84.27;102128.66;4990280;28;20041;-78
2021/12/15 11:31:27;;;;;;;2.55;1.35;;;;;;;13.18;83.78;102129.16;4997116;28;20029;-77
2021/12/15 11:33:57;;;;;;;3.95;1.35;;;;;;;13.32;82.91;102131.28;4995579;28;20044;-77
2021/12/15 11:36:25;;;;;;;2.30;1.08;;;;;;;12.21;86.32;102124.66;4998371;28;20041;-78
2021/12/15 11:39:15;;;;;;;1.02;0.88;;;;;;;12.36;87.09;102130.34;5012757;28;20041;-78
2021/12/15 11:41:43;;;;;;;2.60;1.60;;;;;;;12.48;85.95;102123.72;5013895;28;20045;-78
2021/12/15 11:44:12;;;;;;;3.15;1.50;;;;;;;13.30;82.55;102122.50;5045223;28;20021;-77
2021/12/15 11:46:45;;;;;;;1.15;0.80;;;;;;;13.46;80.67;102112.78;5023436;28;20061;-78
2021/12/15 11:49:17;;;;;;;2.40;1.08;;;;;;;13.26;82.34;102126.53;5026185;28;20048;-79
2021/12/15 11:51:55;;;;;;;1.40;1.10;;;;;;;13.81;79.26;102103.63;4997948;28;20037;-77
2021/12/15 11:54:24;;;;;;;4.85;2.08;;;;;;;14.08;78.33;102133.13;5013368;28;20041;-77
2021/12/15 11:56:53;;;;;;;3.35;1.60;;;;;;;13.87;78.34;102130.03;5004459;28;20044;-78
2021/12/15 11:59:33;;;;;;;4.35;1.83;;;;;;;13.23;81.53;102123.25;5030064;28;20112;-77
2021/12/15 12:02:21;;;;;;;12.70;6.15;;;;;;;14.66;76.91;102133.22;5028790;28;20030;-78
2021/12/15 12:04:55;;;;;;;7.43;2.70;;;;;;;13.41;80.12;102133.00;5012511;28;20051;-77
2021/12/15 12:07:34;;;;;;;12.55;5.93;;;;;;;12.55;84.43;102119.41;5026016;28;20033;-79
2021/12/15 12:10:00;;;;;;;25.65;8.98;;;;;;;14.46;79.05;102136.22;5021887;28;20161;-79
2021/12/15 12:12:38;;;;;;;5.28;2.75;;;;;;;16.18;71.85;102132.28;5011027;28;20040;-79
2021/12/15 12:15:12;;;;;;;5.00;2.17;;;;;;;16.62;69.21;102128.91;5011002;28;20050;-79
2021/12/15 12:17:40;;;;;;;4.60;2.15;;;;;;;17.11;67.81;102123.88;5007603;28;20053;-83
2021/12/15 12:20:12;;;;;;;4.38;1.50;;;;;;;16.91;66.85;102125.47;4993109;28;20029;-84
2021/12/15 12:22:46;;;;;;;3.15;1.52;;;;;;;16.42;67.57;102136.69;5012788;28;20041;-87
2021/12/15 12:25:19;;;;;;;5.57;2.28;;;;;;;16.38;68.28;102135.34;5014068;28;20030;-83
2021/12/15 12:27:46;;;;;;;10.85;4.07;;;;;;;16.23;70.28;102128.00;5023760;28;20076;-85
2021/12/15 12:30:15;;;;;;;26.92;6.05;;;;;;;16.22;69.58;102137.16;4995879;28;20467;-82
2021/12/15 12:32:42;;;;;;;4.00;1.88;;;;;;;17.05;66.07;102115.63;5002270;28;20367;-83
2021/12/15 12:35:12;;;;;;;3.35;1.73;;;;;;;17.48;64.36;102132.97;4995448;28;20037;-83
2021/12/15 12:37:39;;;;;;;4.38;1.70;;;;;;;18.28;62.73;102136.69;5030148;28;20037;-83
2021/12/15 12:40:53;;;;;;;3.95;1.33;;;;;;;18.44;61.60;102132.88;4995705;28;20045;-83
2021/12/15 12:43:29;;;;;;;2.53;1.65;;;;;;;18.22;61.62;102135.59;5001951;28;20033;-82